PWSweather.com
Personal Weather Stations
Station Observations
KVAGLENALL
West Henrico, Glen Allen, VA 23060-6503

West HenricoGlen Allen, VA 23060-6503

Lat: 37.6554, Lon: -77.5693

Elevation: 273

Station Type: Davis Vantage Pro II

www.glenallenweather.com

High Low Average
Temperature 46.8°F8.2°C 29.2°F-1.6°C 37.5°F3.1°C
Dew Point 45.8°F7.7°C 24.0°F-4.4°C 31.5°F-0.3°C
Winds 7.0 mph 11.3 kmh Calm Calm 3.0 mph S4.8 kmh S
Wind Gusts 11.1 mph17.9 kmh -- 5.0 mph8.0 kmh
Humidity 96% 54% 80%
Pressure 30.57 in1035.2 mb 30.14 in1020.7 mb -
Precipitation 0.00 in0.0 mm - -
Hour Temp Dew Point Humidity Winds Wind Gusts Pressure Precip Precip Rate Daily Precip Total
12:30 AM 46.8°F8.2°C 45.8°F7.7°C 96% 3.0 mph NW4.8 kmh NW 9.1 mph14.6 kmh 30.14 in1020.7 mb 0.01 in0.3 mm 0.02 in0.5 mm 0.01 in0.3 mm
01:30 AM 44.8°F7.1°C 43.5°F6.4°C 95% 3.0 mph NW4.8 kmh NW 8.1 mph13.0 kmh 30.17 in1021.7 mb 0.07 in1.8 mm 0.00 in0.0 mm 0.07 in1.8 mm
02:30 AM 42.6°F5.9°C 41.3°F5.2°C 95% 5.0 mph NNW8.0 kmh NNW 11.1 mph17.9 kmh 30.21 in1023.0 mb 0.10 in2.5 mm 0.00 in0.0 mm 0.10 in2.5 mm
03:30 AM 37.5°F3.1°C 35.9°F2.2°C 94% 3.0 mph N4.8 kmh N 8.1 mph13.0 kmh 30.22 in1023.4 mb 0.08 in2.0 mm 0.00 in0.0 mm 0.10 in2.5 mm
04:30 AM 34.3°F1.3°C 32.7°F0.4°C 94% 3.0 mph NNE4.8 kmh NNE 4.0 mph6.4 kmh 30.25 in1024.4 mb 0.03 in0.8 mm 0.00 in0.0 mm 0.10 in2.5 mm
05:30 AM 33.5°F0.8°C 32.5°F0.3°C 96% 2.0 mph NW3.2 kmh NW 3.0 mph4.8 kmh 30.30 in1026.1 mb 0.02 in0.5 mm 0.00 in0.0 mm 0.10 in2.5 mm
06:30 AM 33.7°F0.9°C 32.7°F0.4°C 96% 4.0 mph NNE6.4 kmh NNE 8.1 mph13.0 kmh 30.30 in1026.1 mb 0.05 in1.3 mm 0.00 in0.0 mm 0.13 in3.3 mm
07:30 AM 33.0°F0.6°C 31.7°F-0.2°C 95% Calm Calm 2.0 mph3.2 kmh 30.35 in1027.8 mb 0.00 in0.0 mm 0.00 in0.0 mm 0.13 in3.3 mm
08:30 AM 33.9°F1.1°C 32.9°F0.5°C 96% 1.0 mph N1.6 kmh N 2.0 mph3.2 kmh 30.37 in1028.4 mb 0.00 in0.0 mm 0.00 in0.0 mm 0.13 in3.3 mm
09:30 AM 39.1°F3.9°C 36.1°F2.3°C 89% 3.0 mph N4.8 kmh N 4.0 mph6.4 kmh 30.39 in1029.1 mb 0.00 in0.0 mm 0.00 in0.0 mm 0.13 in3.3 mm
10:30 AM 41.9°F5.5°C 36.2°F2.3°C 80% 5.0 mph NNE8.0 kmh NNE 5.1 mph8.2 kmh 30.39 in1029.1 mb 0.00 in0.0 mm 0.00 in0.0 mm 0.13 in3.3 mm
11:30 AM 43.3°F6.3°C 33.5°F0.8°C 68% 6.0 mph N9.7 kmh N 8.1 mph13.0 kmh 30.38 in1028.8 mb 0.00 in0.0 mm 0.00 in0.0 mm 0.13 in3.3 mm
12:30 PM 42.7°F5.9°C 30.2°F-1.0°C 61% 7.0 mph W11.3 kmh W 10.1 mph16.3 kmh 30.38 in1028.8 mb 0.00 in0.0 mm 0.00 in0.0 mm 0.13 in3.3 mm
01:30 PM 42.8°F6.0°C 30.3°F-0.9°C 61% 4.0 mph WNW6.4 kmh WNW 5.1 mph8.2 kmh 30.37 in1028.4 mb 0.06 in1.5 mm 0.00 in0.0 mm 0.19 in4.8 mm
02:30 PM 44.8°F7.1°C 31.0°F-0.6°C 58% 2.0 mph NW3.2 kmh NW 2.0 mph3.2 kmh 30.37 in1028.4 mb 0.00 in0.0 mm 0.00 in0.0 mm 0.19 in4.8 mm
03:30 PM 43.5°F6.4°C 28.0°F-2.2°C 54% 4.0 mph NNE6.4 kmh NNE 10.1 mph16.3 kmh 30.41 in1029.8 mb 0.00 in0.0 mm 0.00 in0.0 mm 0.19 in4.8 mm
04:30 PM 39.9°F4.4°C 26.3°F-3.2°C 58% 1.0 mph NW1.6 kmh NW 4.0 mph6.4 kmh 30.41 in1029.8 mb 0.00 in0.0 mm 0.00 in0.0 mm 0.19 in4.8 mm
05:30 PM 35.6°F2.0°C 26.1°F-3.3°C 68% Calm Calm -- 30.42 in1030.1 mb 0.00 in0.0 mm 0.00 in0.0 mm 0.19 in4.8 mm
06:30 PM 33.7°F0.9°C 24.9°F-3.9°C 70% Calm Calm 2.0 mph3.2 kmh 30.45 in1031.2 mb 0.00 in0.0 mm 0.00 in0.0 mm 0.19 in4.8 mm
07:30 PM 32.4°F0.2°C 25.3°F-3.7°C 75% 2.0 mph SW3.2 kmh SW 3.0 mph4.8 kmh 30.47 in1031.8 mb 0.00 in0.0 mm 0.00 in0.0 mm 0.19 in4.8 mm
08:30 PM 31.0°F-0.6°C 25.5°F-3.6°C 80% 1.0 mph S1.6 kmh S 1.0 mph1.6 kmh 30.49 in1032.5 mb 0.00 in0.0 mm 0.00 in0.0 mm 0.19 in4.8 mm
09:30 PM 29.2°F-1.6°C 25.5°F-3.6°C 86% Calm Calm -- 30.50 in1032.8 mb 0.00 in0.0 mm 0.00 in0.0 mm 0.19 in4.8 mm
10:30 PM 29.7°F-1.3°C 25.1°F-3.8°C 83% 2.0 mph N3.2 kmh N 4.0 mph6.4 kmh 30.54 in1034.2 mb 0.00 in0.0 mm 0.00 in0.0 mm 0.19 in4.8 mm
11:30 PM 31.3°F-0.4°C 24.0°F-4.4°C 74% 5.0 mph NE8.0 kmh NE 5.1 mph8.2 kmh 30.57 in1035.2 mb 0.00 in0.0 mm 0.00 in0.0 mm 0.19 in4.8 mm